Skip Navigation Links
NOAA logo - Click to go to the NOAA homepage
NOAA's National Weather Service
Alaska Aviation Weather Unit
  NWS logo - Click to go to the NWS homepage
Left Navbar Graphic     21 AKDT = 05 GMT

   
NOAA is celebrating 200 years of science, service, and stewardship. Visit the NOAA 200th celebration Web site to learn more.
USA.gov is the U.S. Government's official Web portal to all Federal, state and local government Web resources and services.
Facebook
NWS on Facebook

Important Change Regarding the AAWU Web Presence

 

Over the last several months, the AAWU has been working to navigate its webpages to a nationally supported server. Security, as well as other needs, have necessitated the change.  In the process, we have made an effort to enhance the functionality of our website, as well as some of our products. As of June 27, 2017, aawu.arh.noaa.gov will be discontinued. The new AAWU web address is weather.gov/aawu. It is now live and will run in-parallel with the old site until it is discontinued. Please send any feedback or questions regarding the new webpages to nws.ar.aawu.webauthors@noaa.gov.  Thank you for your patience during this time of transition.
AAWU Home :: Display TAF Add Bookmark
METAR PAAK 252316Z 31013G17KT 10SM SCT023 OVC028 09/04 A2959 RMK AO1=

METAR PAAK 252336Z 30012G19KT 10SM BKN031 09/04 A2958 RMK AO1=

METAR PAAK 252356Z 30014G21KT 10SM BKN029 09/03 A2959 RMK AO1 10100
     20060 401000060 52007=

METAR PAAK 260016Z 31011KT 10SM OVC031 09/03 A2959 RMK AO1=

METAR PAAK 260036Z 30011KT 10SM OVC031 09/04 A2959 RMK AO1=

METAR PAAK 260056Z 29010G16KT 10SM OVC031 09/03 A2960 RMK AO1=

METAR PAAK 260116Z 31007KT 10SM OVC028 09/03 A2960 RMK AO1=

METAR PAAK 260136Z 32005KT 10SM OVC026 09/04 A2959 RMK AO1=

METAR PAAK 260156Z 32005KT 10SM BKN018 OVC024 09/04 A2959 RMK AO1=

METAR PAAK 260216Z 33006KT 10SM OVC020 09/03 A2959 RMK AO1=

METAR PAAK 260236Z 33006KT 10SM 09/03 A2958 RMK AO1=

METAR PAAK 260256Z 30007KT 10SM 09/03 A2958 RMK AO1 57003=

METAR PAAK 260316Z 34007KT 10SM BKN002 BKN024 OVC034 11/06 A2957 RMK
 AO1=

METAR PAAK 260336Z 34007KT 10SM BKN022 BKN030 OVC034 09/03 A2957 RMK
     AO1=

METAR PAAK 260356Z 21012KT 10SM BKN020 OVC026 09/04 A2958 RMK AO1=

METAR PAAK 260416Z 20011KT 10SM FEW021 OVC026 09/04 A2957 RMK AO1=

METAR PAAK 260436Z 20011G17KT 10SM OVC030 09/04 A2957 RMK AO1=

METAR PAAK 260456Z 21010KT 10SM OVC028 09/03 A2956 RMK AO1=

METAR PAAK 260516Z 25005KT 10SM OVC025 09/04 A2956 RMK AO1=


NOAA's National Weather Service
Alaska Aviation Weather Unit
6930 Sand Lake Road
Anchorage, AK 99502-1845
Disclaimer
Credits
Glossary
Privacy Policy
About Us
Career Opportunities
Contact AAWU Internet Services Site last modified: April, 17th 2012